sensor_id;sensor_type;location;lat;lon;timestamp;pressure;altitude;pressure_sealevel;temperature;humidity
49341;BME280;35209;51.050;13.678;2023-05-23T00:02:22;99528.53;;;18.09;70.69
49341;BME280;35209;51.050;13.678;2023-05-23T00:07:25;99527.56;;;17.97;72.27
49341;BME280;35209;51.050;13.678;2023-05-23T00:12:26;99526.72;;;17.97;75.53
49341;BME280;35209;51.050;13.678;2023-05-23T00:17:28;99524.50;;;18.03;76.01
49341;BME280;35209;51.050;13.678;2023-05-23T00:22:30;99525.72;;;18.36;75.32
49341;BME280;35209;51.050;13.678;2023-05-23T00:27:31;99538.69;;;18.28;76.45
49341;BME280;35209;51.050;13.678;2023-05-23T00:32:33;99555.03;;;17.85;91.33
49341;BME280;35209;51.050;13.678;2023-05-23T00:37:36;99564.56;;;17.49;100.00
49341;BME280;35209;51.050;13.678;2023-05-23T00:42:38;99561.03;;;17.36;100.00
49341;BME280;35209;51.050;13.678;2023-05-23T00:47:40;99562.53;;;17.00;100.00
49341;BME280;35209;51.050;13.678;2023-05-23T00:52:44;99549.78;;;17.05;100.00
49341;BME280;35209;51.050;13.678;2023-05-23T00:57:46;99536.16;;;16.97;100.00
49341;BME280;35209;51.050;13.678;2023-05-23T01:02:50;99533.84;;;17.05;100.00
49341;BME280;35209;51.050;13.678;2023-05-23T01:07:53;99527.38;;;17.09;100.00
49341;BME280;35209;51.050;13.678;2023-05-23T01:12:57;99535.19;;;16.98;100.00
49341;BME280;35209;51.050;13.678;2023-05-23T01:18:09;99549.63;;;17.34;100.00
49341;BME280;35209;51.050;13.678;2023-05-23T01:28:36;99551.13;;;16.98;100.00
49341;BME280;35209;51.050;13.678;2023-05-23T01:33:42;99548.00;;;16.79;100.00
49341;BME280;35209;51.050;13.678;2023-05-23T01:38:44;99557.66;;;16.80;100.00
49341;BME280;35209;51.050;13.678;2023-05-23T01:43:46;99555.09;;;16.64;100.00
49341;BME280;35209;51.050;13.678;2023-05-23T01:48:48;99542.22;;;16.58;100.00
49341;BME280;35209;51.050;13.678;2023-05-23T01:53:51;99547.72;;;16.55;100.00
49341;BME280;35209;51.050;13.678;2023-05-23T01:58:52;99545.94;;;16.41;100.00
49341;BME280;35209;51.050;13.678;2023-05-23T02:03:55;99544.56;;;16.77;100.00
49341;BME280;35209;51.050;13.678;2023-05-23T02:08:57;99545.34;;;16.64;100.00
49341;BME280;35209;51.050;13.678;2023-05-23T02:13:59;99530.16;;;16.67;100.00
49341;BME280;35209;51.050;13.678;2023-05-23T02:19:01;99523.16;;;16.65;100.00
49341;BME280;35209;51.050;13.678;2023-05-23T02:24:04;99503.59;;;16.81;100.00
49341;BME280;35209;51.050;13.678;2023-05-23T02:29:05;99502.91;;;16.50;100.00
49341;BME280;35209;51.050;13.678;2023-05-23T02:34:07;99506.81;;;16.45;100.00
49341;BME280;35209;51.050;13.678;2023-05-23T02:39:09;99482.09;;;16.71;100.00
49341;BME280;35209;51.050;13.678;2023-05-23T02:44:11;99490.25;;;16.41;100.00
49341;BME280;35209;51.050;13.678;2023-05-23T02:49:13;99497.00;;;16.32;100.00
49341;BME280;35209;51.050;13.678;2023-05-23T02:54:14;99477.47;;;16.33;100.00
49341;BME280;35209;51.050;13.678;2023-05-23T02:59:17;99459.19;;;16.29;100.00
49341;BME280;35209;51.050;13.678;2023-05-23T03:04:19;99453.66;;;16.46;100.00
49341;BME280;35209;51.050;13.678;2023-05-23T03:09:21;99450.81;;;16.49;100.00
49341;BME280;35209;51.050;13.678;2023-05-23T03:14:23;99440.38;;;16.19;100.00
49341;BME280;35209;51.050;13.678;2023-05-23T03:19:25;99446.41;;;16.35;100.00
49341;BME280;35209;51.050;13.678;2023-05-23T03:24:27;99449.38;;;16.31;100.00
49341;BME280;35209;51.050;13.678;2023-05-23T03:29:29;99446.38;;;16.08;100.00
49341;BME280;35209;51.050;13.678;2023-05-23T03:34:31;99442.19;;;16.19;100.00
49341;BME280;35209;51.050;13.678;2023-05-23T03:39:34;99444.34;;;16.26;100.00
49341;BME280;35209;51.050;13.678;2023-05-23T03:44:39;99435.31;;;16.43;100.00
49341;BME280;35209;51.050;13.678;2023-05-23T03:49:41;99436.88;;;16.19;100.00
49341;BME280;35209;51.050;13.678;2023-05-23T03:54:43;99444.53;;;16.23;100.00
49341;BME280;35209;51.050;13.678;2023-05-23T03:59:45;99469.78;;;16.02;100.00
49341;BME280;35209;51.050;13.678;2023-05-23T04:04:46;99465.59;;;15.98;100.00
49341;BME280;35209;51.050;13.678;2023-05-23T04:09:48;99480.09;;;16.06;100.00
49341;BME280;35209;51.050;13.678;2023-05-23T04:14:51;99482.72;;;16.06;100.00
49341;BME280;35209;51.050;13.678;2023-05-23T04:19:53;99484.91;;;16.14;100.00
49341;BME280;35209;51.050;13.678;2023-05-23T04:24:56;99480.38;;;16.16;100.00
49341;BME280;35209;51.050;13.678;2023-05-23T04:30:02;99485.38;;;16.21;100.00
49341;BME280;35209;51.050;13.678;2023-05-23T04:35:05;99498.50;;;16.36;100.00
49341;BME280;35209;51.050;13.678;2023-05-23T04:40:11;99495.28;;;16.31;100.00
49341;BME280;35209;51.050;13.678;2023-05-23T04:45:32;99495.59;;;16.27;100.00
49341;BME280;35209;51.050;13.678;2023-05-23T04:50:44;99491.94;;;16.42;100.00
49341;BME280;35209;51.050;13.678;2023-05-23T04:55:48;99500.91;;;16.54;100.00
49341;BME280;35209;51.050;13.678;2023-05-23T05:00:51;99496.56;;;16.53;100.00
49341;BME280;35209;51.050;13.678;2023-05-23T05:05:54;99500.91;;;16.27;100.00
49341;BME280;35209;51.050;13.678;2023-05-23T05:10:56;99502.00;;;16.64;100.00
49341;BME280;35209;51.050;13.678;2023-05-23T05:15:58;99512.25;;;16.70;100.00
49341;BME280;35209;51.050;13.678;2023-05-23T05:21:01;99513.53;;;16.92;100.00
49341;BME280;35209;51.050;13.678;2023-05-23T05:26:03;99511.13;;;17.01;100.00
49341;BME280;35209;51.050;13.678;2023-05-23T05:31:06;99514.22;;;17.21;100.00
49341;BME280;35209;51.050;13.678;2023-05-23T05:36:09;99509.41;;;17.00;100.00
49341;BME280;35209;51.050;13.678;2023-05-23T05:41:12;99507.75;;;17.25;100.00
49341;BME280;35209;51.050;13.678;2023-05-23T05:46:19;99513.25;;;17.22;100.00
49341;BME280;35209;51.050;13.678;2023-05-23T05:51:21;99515.06;;;17.21;100.00
49341;BME280;35209;51.050;13.678;2023-05-23T05:56:23;99516.81;;;17.48;100.00
49341;BME280;35209;51.050;13.678;2023-05-23T06:01:25;99528.63;;;17.69;100.00
49341;BME280;35209;51.050;13.678;2023-05-23T06:06:27;99540.00;;;17.58;100.00
49341;BME280;35209;51.050;13.678;2023-05-23T06:11:29;99536.97;;;17.77;100.00
49341;BME280;35209;51.050;13.678;2023-05-23T06:16:31;99533.88;;;17.83;100.00
49341;BME280;35209;51.050;13.678;2023-05-23T06:21:33;99536.00;;;17.78;100.00
49341;BME280;35209;51.050;13.678;2023-05-23T06:26:38;99538.41;;;17.69;100.00
49341;BME280;35209;51.050;13.678;2023-05-23T06:31:39;99542.97;;;17.54;100.00
49341;BME280;35209;51.050;13.678;2023-05-23T06:36:41;99550.31;;;17.63;100.00
49341;BME280;35209;51.050;13.678;2023-05-23T06:41:43;99549.34;;;17.51;100.00
49341;BME280;35209;51.050;13.678;2023-05-23T06:46:45;99553.63;;;17.54;100.00
49341;BME280;35209;51.050;13.678;2023-05-23T06:51:49;99560.41;;;17.71;100.00
49341;BME280;35209;51.050;13.678;2023-05-23T06:56:52;99563.16;;;17.56;100.00
49341;BME280;35209;51.050;13.678;2023-05-23T07:01:54;99549.28;;;17.78;100.00
49341;BME280;35209;51.050;13.678;2023-05-23T07:06:58;99558.56;;;17.85;100.00
49341;BME280;35209;51.050;13.678;2023-05-23T07:12:00;99558.28;;;18.27;100.00
49341;BME280;35209;51.050;13.678;2023-05-23T07:17:02;99565.88;;;18.20;92.98
49341;BME280;35209;51.050;13.678;2023-05-23T07:22:04;99562.13;;;18.23;96.18
49341;BME280;35209;51.050;13.678;2023-05-23T07:27:09;99576.06;;;18.39;94.27
49341;BME280;35209;51.050;13.678;2023-05-23T07:32:12;99575.94;;;18.40;93.19
49341;BME280;35209;51.050;13.678;2023-05-23T07:37:14;99574.16;;;18.28;93.86
49341;BME280;35209;51.050;13.678;2023-05-23T07:42:18;99552.50;;;18.46;93.85
49341;BME280;35209;51.050;13.678;2023-05-23T07:47:20;99560.56;;;18.94;91.63
49341;BME280;35209;51.050;13.678;2023-05-23T07:52:22;99571.78;;;19.69;86.32
49341;BME280;35209;51.050;13.678;2023-05-23T07:57:24;99569.13;;;19.69;85.48
49341;BME280;35209;51.050;13.678;2023-05-23T08:02:27;99573.91;;;19.88;81.33
49341;BME280;35209;51.050;13.678;2023-05-23T08:07:29;99577.56;;;20.21;81.75
49341;BME280;35209;51.050;13.678;2023-05-23T08:12:35;99574.53;;;20.36;81.92
49341;BME280;35209;51.050;13.678;2023-05-23T08:17:45;99581.34;;;20.52;79.85
49341;BME280;35209;51.050;13.678;2023-05-23T08:22:47;99577.25;;;20.91;75.65
49341;BME280;35209;51.050;13.678;2023-05-23T08:27:49;99588.94;;;20.79;77.83
49341;BME280;35209;51.050;13.678;2023-05-23T08:33:11;99596.63;;;20.50;77.09
49341;BME280;35209;51.050;13.678;2023-05-23T08:38:17;99598.28;;;20.06;76.98
49341;BME280;35209;51.050;13.678;2023-05-23T08:43:33;99612.94;;;20.00;74.72
49341;BME280;35209;51.050;13.678;2023-05-23T08:48:37;99607.63;;;19.65;78.47
49341;BME280;35209;51.050;13.678;2023-05-23T08:53:41;99615.91;;;19.73;80.27
49341;BME280;35209;51.050;13.678;2023-05-23T08:58:48;99606.69;;;19.66;81.50
49341;BME280;35209;51.050;13.678;2023-05-23T09:03:52;99609.25;;;19.68;81.63
49341;BME280;35209;51.050;13.678;2023-05-23T09:09:10;99617.38;;;19.77;80.42
49341;BME280;35209;51.050;13.678;2023-05-23T09:14:14;99622.41;;;19.34;85.82
49341;BME280;35209;51.050;13.678;2023-05-23T09:19:17;99623.94;;;19.25;87.07
49341;BME280;35209;51.050;13.678;2023-05-23T09:24:33;99633.25;;;19.20;85.00
49341;BME280;35209;51.050;13.678;2023-05-23T09:29:37;99632.09;;;19.11;87.36
49341;BME280;35209;51.050;13.678;2023-05-23T09:34:54;99647.34;;;18.59;89.83
49341;BME280;35209;51.050;13.678;2023-05-23T09:39:59;99648.53;;;18.43;91.03
49341;BME280;35209;51.050;13.678;2023-05-23T09:45:02;99656.00;;;18.25;94.96
49341;BME280;35209;51.050;13.678;2023-05-23T09:50:06;99654.72;;;18.18;92.29
49341;BME280;35209;51.050;13.678;2023-05-23T09:55:09;99658.03;;;18.34;94.68
49341;BME280;35209;51.050;13.678;2023-05-23T10:00:11;99671.84;;;18.13;89.30
49341;BME280;35209;51.050;13.678;2023-05-23T10:05:39;99663.22;;;17.84;91.45
49341;BME280;35209;51.050;13.678;2023-05-23T10:16:26;99671.19;;;18.23;83.26
49341;BME280;35209;51.050;13.678;2023-05-23T10:21:39;99673.13;;;18.21;78.60
49341;BME280;35209;51.050;13.678;2023-05-23T10:26:47;99675.44;;;18.76;78.58
49341;BME280;35209;51.050;13.678;2023-05-23T10:31:51;99680.88;;;18.87;77.82
49341;BME280;35209;51.050;13.678;2023-05-23T10:37:18;99687.63;;;19.17;74.98
49341;BME280;35209;51.050;13.678;2023-05-23T10:47:41;99696.00;;;18.36;77.76
49341;BME280;35209;51.050;13.678;2023-05-23T10:52:43;99702.00;;;18.78;75.48
49341;BME280;35209;51.050;13.678;2023-05-23T10:57:45;99698.72;;;18.98;76.21
49341;BME280;35209;51.050;13.678;2023-05-23T11:02:58;99702.72;;;18.80;76.53
49341;BME280;35209;51.050;13.678;2023-05-23T11:08:13;99697.03;;;18.97;75.54
49341;BME280;35209;51.050;13.678;2023-05-23T11:13:15;99701.16;;;19.14;73.01
49341;BME280;35209;51.050;13.678;2023-05-23T11:18:23;99703.06;;;19.12;73.09
49341;BME280;35209;51.050;13.678;2023-05-23T11:23:38;99709.69;;;19.06;75.69
49341;BME280;35209;51.050;13.678;2023-05-23T11:28:57;99710.34;;;18.97;73.35
49341;BME280;35209;51.050;13.678;2023-05-23T11:33:59;99715.38;;;18.89;76.34
49341;BME280;35209;51.050;13.678;2023-05-23T11:39:02;99713.22;;;18.94;75.92
49341;BME280;35209;51.050;13.678;2023-05-23T11:44:11;99713.66;;;19.01;74.25
49341;BME280;35209;51.050;13.678;2023-05-23T11:49:13;99703.00;;;19.01;74.85
49341;BME280;35209;51.050;13.678;2023-05-23T11:54:15;99708.75;;;18.95;75.65
49341;BME280;35209;51.050;13.678;2023-05-23T11:59:17;99708.25;;;19.26;73.29
49341;BME280;35209;51.050;13.678;2023-05-23T12:04:19;99702.66;;;19.05;72.85
49341;BME280;35209;51.050;13.678;2023-05-23T12:09:21;99693.41;;;19.35;71.78
49341;BME280;35209;51.050;13.678;2023-05-23T12:14:27;99693.72;;;19.67;69.98
49341;BME280;35209;51.050;13.678;2023-05-23T12:19:29;99691.31;;;20.10;72.33
49341;BME280;35209;51.050;13.678;2023-05-23T12:24:31;99694.72;;;20.12;68.92
49341;BME280;35209;51.050;13.678;2023-05-23T12:29:34;99693.78;;;20.25;68.21
49341;BME280;35209;51.050;13.678;2023-05-23T12:34:40;99707.50;;;19.96;68.73
49341;BME280;35209;51.050;13.678;2023-05-23T12:39:43;99709.66;;;19.19;73.07
49341;BME280;35209;51.050;13.678;2023-05-23T12:44:49;99708.69;;;18.71;71.49
49341;BME280;35209;51.050;13.678;2023-05-23T12:49:51;99722.19;;;18.67;72.10
49341;BME280;35209;51.050;13.678;2023-05-23T12:54:53;99719.00;;;18.37;73.81
49341;BME280;35209;51.050;13.678;2023-05-23T12:59:55;99724.84;;;18.17;76.61
49341;BME280;35209;51.050;13.678;2023-05-23T13:04:57;99721.19;;;18.05;79.30
49341;BME280;35209;51.050;13.678;2023-05-23T13:09:59;99732.75;;;17.91;81.66
49341;BME280;35209;51.050;13.678;2023-05-23T13:15:01;99737.22;;;17.90;79.08
49341;BME280;35209;51.050;13.678;2023-05-23T13:20:03;99731.75;;;17.52;80.37
49341;BME280;35209;51.050;13.678;2023-05-23T13:25:07;99740.56;;;17.53;80.10
49341;BME280;35209;51.050;13.678;2023-05-23T13:30:09;99744.34;;;17.22;85.77
49341;BME280;35209;51.050;13.678;2023-05-23T13:35:11;99752.72;;;17.15;90.72
49341;BME280;35209;51.050;13.678;2023-05-23T13:40:18;99743.25;;;16.97;92.31
49341;BME280;35209;51.050;13.678;2023-05-23T13:45:20;99756.31;;;16.72;94.23
49341;BME280;35209;51.050;13.678;2023-05-23T13:50:23;99761.50;;;16.45;96.02
49341;BME280;35209;51.050;13.678;2023-05-23T13:55:25;99765.56;;;16.36;99.08
49341;BME280;35209;51.050;13.678;2023-05-23T14:00:28;99762.50;;;16.28;100.00
49341;BME280;35209;51.050;13.678;2023-05-23T14:05:29;99764.19;;;16.29;100.00
49341;BME280;35209;51.050;13.678;2023-05-23T14:10:31;99767.09;;;16.54;100.00
49341;BME280;35209;51.050;13.678;2023-05-23T14:15:36;99765.84;;;16.46;99.99
49341;BME280;35209;51.050;13.678;2023-05-23T14:20:39;99778.53;;;16.40;96.54
49341;BME280;35209;51.050;13.678;2023-05-23T14:25:40;99781.78;;;16.46;92.06
49341;BME280;35209;51.050;13.678;2023-05-23T14:30:43;99777.75;;;16.24;94.79
49341;BME280;35209;51.050;13.678;2023-05-23T14:35:45;99779.59;;;16.38;93.42
49341;BME280;35209;51.050;13.678;2023-05-23T14:40:46;99787.72;;;16.35;95.49
49341;BME280;35209;51.050;13.678;2023-05-23T14:45:49;99794.63;;;16.37;97.85
49341;BME280;35209;51.050;13.678;2023-05-23T14:50:51;99795.00;;;16.31;100.00
49341;BME280;35209;51.050;13.678;2023-05-23T14:55:53;99793.88;;;16.05;100.00
49341;BME280;35209;51.050;13.678;2023-05-23T15:00:55;99797.75;;;16.00;100.00
49341;BME280;35209;51.050;13.678;2023-05-23T15:05:58;99809.34;;;16.13;100.00
49341;BME280;35209;51.050;13.678;2023-05-23T15:11:00;99806.28;;;16.05;99.68
49341;BME280;35209;51.050;13.678;2023-05-23T15:16:02;99815.25;;;16.02;98.51
49341;BME280;35209;51.050;13.678;2023-05-23T15:21:04;99814.19;;;15.91;98.22
49341;BME280;35209;51.050;13.678;2023-05-23T15:26:06;99808.94;;;15.89;98.70
49341;BME280;35209;51.050;13.678;2023-05-23T15:31:07;99807.72;;;16.10;97.55
49341;BME280;35209;51.050;13.678;2023-05-23T15:36:09;99805.44;;;15.88;94.85
49341;BME280;35209;51.050;13.678;2023-05-23T15:41:15;99815.09;;;15.58;99.43
49341;BME280;35209;51.050;13.678;2023-05-23T15:46:17;99816.47;;;15.49;100.00
49341;BME280;35209;51.050;13.678;2023-05-23T15:51:19;99816.56;;;15.32;100.00
49341;BME280;35209;51.050;13.678;2023-05-23T15:56:21;99820.78;;;15.03;100.00
49341;BME280;35209;51.050;13.678;2023-05-23T16:01:23;99826.78;;;15.06;100.00
49341;BME280;35209;51.050;13.678;2023-05-23T16:06:25;99834.34;;;14.97;100.00
49341;BME280;35209;51.050;13.678;2023-05-23T16:11:28;99834.13;;;14.84;100.00
49341;BME280;35209;51.050;13.678;2023-05-23T16:16:30;99836.56;;;14.71;100.00
49341;BME280;35209;51.050;13.678;2023-05-23T16:21:32;99844.31;;;14.39;100.00
49341;BME280;35209;51.050;13.678;2023-05-23T16:26:33;99841.66;;;14.22;100.00
49341;BME280;35209;51.050;13.678;2023-05-23T16:31:35;99837.25;;;14.23;100.00
49341;BME280;35209;51.050;13.678;2023-05-23T16:36:37;99837.78;;;14.29;100.00
49341;BME280;35209;51.050;13.678;2023-05-23T16:41:39;99842.91;;;14.15;100.00
49341;BME280;35209;51.050;13.678;2023-05-23T16:46:41;99842.97;;;14.13;100.00
49341;BME280;35209;51.050;13.678;2023-05-23T16:51:43;99854.38;;;13.97;100.00
49341;BME280;35209;51.050;13.678;2023-05-23T16:56:48;99852.50;;;13.99;100.00
49341;BME280;35209;51.050;13.678;2023-05-23T17:01:49;99853.19;;;13.66;100.00
49341;BME280;35209;51.050;13.678;2023-05-23T17:06:52;99853.09;;;13.50;100.00
49341;BME280;35209;51.050;13.678;2023-05-23T17:11:53;99864.19;;;13.38;100.00
49341;BME280;35209;51.050;13.678;2023-05-23T17:16:55;99867.56;;;13.21;100.00
49341;BME280;35209;51.050;13.678;2023-05-23T17:21:57;99876.25;;;13.25;100.00
49341;BME280;35209;51.050;13.678;2023-05-23T17:26:59;99880.16;;;13.14;100.00
49341;BME280;35209;51.050;13.678;2023-05-23T17:32:01;99890.38;;;13.03;100.00
49341;BME280;35209;51.050;13.678;2023-05-23T17:37:03;99892.56;;;12.94;100.00
49341;BME280;35209;51.050;13.678;2023-05-23T17:42:05;99909.31;;;12.93;100.00
49341;BME280;35209;51.050;13.678;2023-05-23T17:47:07;99920.38;;;13.01;100.00
49341;BME280;35209;51.050;13.678;2023-05-23T17:52:09;99934.97;;;12.89;100.00
49341;BME280;35209;51.050;13.678;2023-05-23T17:57:15;99933.34;;;12.65;100.00
49341;BME280;35209;51.050;13.678;2023-05-23T18:02:17;99929.88;;;12.42;100.00
49341;BME280;35209;51.050;13.678;2023-05-23T18:07:19;99929.63;;;12.48;100.00
49341;BME280;35209;51.050;13.678;2023-05-23T18:12:21;99937.88;;;12.41;100.00
49341;BME280;35209;51.050;13.678;2023-05-23T18:17:23;99946.53;;;12.44;100.00
49341;BME280;35209;51.050;13.678;2023-05-23T18:22:25;99943.06;;;12.20;100.00
49341;BME280;35209;51.050;13.678;2023-05-23T18:27:27;99951.88;;;11.97;100.00
49341;BME280;35209;51.050;13.678;2023-05-23T18:32:29;99962.34;;;11.99;100.00
49341;BME280;35209;51.050;13.678;2023-05-23T18:37:31;99974.06;;;11.92;100.00
49341;BME280;35209;51.050;13.678;2023-05-23T18:42:33;99982.16;;;11.87;100.00
49341;BME280;35209;51.050;13.678;2023-05-23T18:47:35;99988.44;;;11.83;100.00
49341;BME280;35209;51.050;13.678;2023-05-23T18:52:37;100002.22;;;11.90;100.00
49341;BME280;35209;51.050;13.678;2023-05-23T18:57:39;100011.66;;;11.95;100.00
49341;BME280;35209;51.050;13.678;2023-05-23T19:02:41;100019.75;;;11.91;100.00
49341;BME280;35209;51.050;13.678;2023-05-23T19:07:45;100035.59;;;11.64;100.00
49341;BME280;35209;51.050;13.678;2023-05-23T19:12:46;100039.56;;;11.52;100.00
49341;BME280;35209;51.050;13.678;2023-05-23T19:17:48;100049.09;;;11.55;100.00
49341;BME280;35209;51.050;13.678;2023-05-23T19:22:50;100048.75;;;11.64;100.00
49341;BME280;35209;51.050;13.678;2023-05-23T19:27:53;100060.88;;;11.70;100.00
49341;BME280;35209;51.050;13.678;2023-05-23T19:32:55;100078.28;;;11.49;100.00
49341;BME280;35209;51.050;13.678;2023-05-23T19:37:57;100085.38;;;11.47;100.00
49341;BME280;35209;51.050;13.678;2023-05-23T19:42:58;100091.03;;;11.61;100.00
49341;BME280;35209;51.050;13.678;2023-05-23T19:48:00;100100.00;;;11.55;100.00
49341;BME280;35209;51.050;13.678;2023-05-23T19:53:02;100103.28;;;11.62;100.00
49341;BME280;35209;51.050;13.678;2023-05-23T19:58:04;100101.06;;;11.75;100.00
49341;BME280;35209;51.050;13.678;2023-05-23T20:03:06;100117.50;;;11.56;100.00
49341;BME280;35209;51.050;13.678;2023-05-23T20:08:09;100125.34;;;11.58;100.00
49341;BME280;35209;51.050;13.678;2023-05-23T20:13:10;100124.06;;;11.70;100.00
49341;BME280;35209;51.050;13.678;2023-05-23T20:18:12;100129.75;;;11.84;100.00
49341;BME280;35209;51.050;13.678;2023-05-23T20:23:14;100129.88;;;11.79;100.00
49341;BME280;35209;51.050;13.678;2023-05-23T20:28:16;100140.66;;;11.72;100.00
49341;BME280;35209;51.050;13.678;2023-05-23T20:33:18;100147.00;;;11.66;100.00
49341;BME280;35209;51.050;13.678;2023-05-23T20:38:20;100141.59;;;11.71;100.00
49341;BME280;35209;51.050;13.678;2023-05-23T20:43:22;100151.69;;;11.58;100.00
49341;BME280;35209;51.050;13.678;2023-05-23T20:48:24;100153.13;;;11.67;100.00
49341;BME280;35209;51.050;13.678;2023-05-23T20:53:26;100162.19;;;11.58;100.00
49341;BME280;35209;51.050;13.678;2023-05-23T20:58:28;100166.38;;;11.65;100.00
49341;BME280;35209;51.050;13.678;2023-05-23T21:03:30;100174.28;;;11.63;100.00
49341;BME280;35209;51.050;13.678;2023-05-23T21:08:32;100171.88;;;11.57;100.00
49341;BME280;35209;51.050;13.678;2023-05-23T21:13:35;100175.97;;;11.66;100.00
49341;BME280;35209;51.050;13.678;2023-05-23T21:18:40;100178.25;;;11.50;100.00
49341;BME280;35209;51.050;13.678;2023-05-23T21:23:42;100172.97;;;11.50;100.00
49341;BME280;35209;51.050;13.678;2023-05-23T21:28:44;100179.84;;;11.56;100.00
49341;BME280;35209;51.050;13.678;2023-05-23T21:33:46;100182.81;;;11.45;100.00
49341;BME280;35209;51.050;13.678;2023-05-23T21:38:48;100186.06;;;11.53;100.00
49341;BME280;35209;51.050;13.678;2023-05-23T21:43:50;100184.34;;;11.52;100.00
49341;BME280;35209;51.050;13.678;2023-05-23T21:48:52;100193.94;;;11.53;100.00
49341;BME280;35209;51.050;13.678;2023-05-23T21:53:53;100189.69;;;11.49;100.00
49341;BME280;35209;51.050;13.678;2023-05-23T22:04:06;100197.69;;;11.46;100.00
49341;BME280;35209;51.050;13.678;2023-05-23T22:09:08;100198.28;;;11.56;100.00
49341;BME280;35209;51.050;13.678;2023-05-23T22:14:11;100197.66;;;11.74;100.00
49341;BME280;35209;51.050;13.678;2023-05-23T22:19:13;100204.03;;;11.67;100.00
49341;BME280;35209;51.050;13.678;2023-05-23T22:24:18;100208.28;;;11.71;100.00
49341;BME280;35209;51.050;13.678;2023-05-23T22:29:20;100205.56;;;11.73;100.00
49341;BME280;35209;51.050;13.678;2023-05-23T22:34:22;100209.09;;;11.73;100.00
49341;BME280;35209;51.050;13.678;2023-05-23T22:39:23;100214.94;;;11.55;100.00
49341;BME280;35209;51.050;13.678;2023-05-23T22:44:25;100224.31;;;11.63;100.00
49341;BME280;35209;51.050;13.678;2023-05-23T22:49:27;100213.47;;;11.46;100.00
49341;BME280;35209;51.050;13.678;2023-05-23T22:54:30;100202.56;;;11.58;100.00
49341;BME280;35209;51.050;13.678;2023-05-23T22:59:32;100211.38;;;11.57;100.00
49341;BME280;35209;51.050;13.678;2023-05-23T23:04:34;100196.34;;;11.61;99.28
49341;BME280;35209;51.050;13.678;2023-05-23T23:09:36;100208.22;;;11.46;100.00
49341;BME280;35209;51.050;13.678;2023-05-23T23:14:37;100202.41;;;11.36;95.22
49341;BME280;35209;51.050;13.678;2023-05-23T23:19:39;100207.19;;;11.24;94.92
49341;BME280;35209;51.050;13.678;2023-05-23T23:24:41;100194.44;;;11.11;98.26
49341;BME280;35209;51.050;13.678;2023-05-23T23:29:43;100189.13;;;11.13;94.78
49341;BME280;35209;51.050;13.678;2023-05-23T23:34:45;100191.06;;;11.06;95.90
49341;BME280;35209;51.050;13.678;2023-05-23T23:39:46;100188.94;;;10.91;95.64
49341;BME280;35209;51.050;13.678;2023-05-23T23:44:48;100188.00;;;10.64;96.83
49341;BME280;35209;51.050;13.678;2023-05-23T23:49:50;100189.50;;;10.71;93.68
49341;BME280;35209;51.050;13.678;2023-05-23T23:54:52;100189.56;;;10.70;93.77
49341;BME280;35209;51.050;13.678;2023-05-23T23:59:54;100203.03;;;10.59;89.74
